Time;durP1;ratioP1;P1;durP2;ratioP2;P2;SDS_P1;SDS_P2;PMS_P1;PMS_P2;Temp;Humidity;BMP_temperature;BMP_pressure;BME280_temperature;BME280_humidity;BME280_pressure;Samples;Min_cycle;Max_cycle;Signal;HPM_P1;HPM_P2
2021/03/28 00:02:11;;;;;;;17.27;2.60;;;;;;;6.93;78.96;102570.25;5093421;28;20026;-75
2021/03/28 00:04:48;;;;;;;20.37;3.23;;;;;;;6.84;79.35;102567.97;5091747;28;20085;-73
2021/03/28 00:07:15;;;;;;;22.27;3.50;;;;;;;6.76;79.47;102566.56;5094252;28;20019;-74
2021/03/28 00:09:45;;;;;;;19.90;3.10;;;;;;;6.79;79.09;102569.31;5093160;28;20050;-73
2021/03/28 00:12:25;;;;;;;14.17;2.73;;;;;;;6.72;80.00;102558.59;5103955;28;20502;-75
2021/03/28 00:15:09;;;;;;;19.23;2.77;;;;;;;6.66;80.07;102568.41;5109612;28;20094;-75
2021/03/28 00:17:55;;;;;;;14.60;2.67;;;;;;;6.66;80.83;102568.41;5109486;28;20020;-75
2021/03/28 00:20:30;;;;;;;21.90;3.63;;;;;;;6.57;80.63;102575.47;5109295;28;20411;-73
2021/03/28 00:22:58;;;;;;;20.53;3.23;;;;;;;6.54;80.98;102571.03;5108053;28;20020;-74
2021/03/28 00:25:52;;;;;;;19.30;2.83;;;;;;;6.47;81.57;102582.47;5071980;28;20126;-74
2021/03/28 00:28:42;;;;;;;12.33;2.90;;;;;;;6.48;81.56;102578.25;5090341;28;20035;-74
2021/03/28 00:31:30;;;;;;;14.30;2.50;;;;;;;6.41;81.89;102568.41;5077810;28;20044;-74
2021/03/28 00:34:03;;;;;;;21.47;3.03;;;;;;;6.39;81.95;102577.63;5089840;28;20046;-73
2021/03/28 00:36:33;;;;;;;21.30;3.63;;;;;;;6.31;82.01;102574.56;5079374;28;20106;-74
2021/03/28 00:39:00;;;;;;;12.03;3.13;;;;;;;6.41;82.40;102581.19;5097267;28;20028;-74
2021/03/28 00:41:56;;;;;;;29.93;3.07;;;;;;;6.40;82.08;102567.53;5098032;28;20057;-77
2021/03/28 00:44:22;;;;;;;24.47;3.30;;;;;;;6.40;82.37;102566.63;5083400;28;20452;-73
2021/03/28 00:46:50;;;;;;;17.87;3.17;;;;;;;6.33;82.50;102577.22;5107576;28;20032;-74
2021/03/28 00:49:31;;;;;;;20.63;2.70;;;;;;;6.37;82.16;102569.88;5104058;28;20520;-74
2021/03/28 00:52:01;;;;;;;18.03;3.00;;;;;;;6.37;82.18;102567.31;5098993;28;20031;-74
2021/03/28 00:54:50;;;;;;;18.47;3.77;;;;;;;6.32;82.59;102570.34;5087452;28;20438;-74
2021/03/28 00:57:31;;;;;;;22.90;3.87;;;;;;;6.27;82.98;102569.16;5088299;28;20435;-73
2021/03/28 01:00:17;;;;;;;16.13;2.73;;;;;;;6.21;82.79;102569.63;5082478;28;20024;-75
2021/03/28 01:03:04;;;;;;;22.50;3.80;;;;;;;6.19;82.65;102569.50;5102479;28;20065;-73
2021/03/28 01:05:43;;;;;;;14.63;3.17;;;;;;;6.21;83.03;102567.97;5103634;28;20069;-75
2021/03/28 01:08:23;;;;;;;16.63;3.33;;;;;;;6.21;82.94;102561.97;5092783;28;20032;-73
2021/03/28 01:11:07;;;;;;;13.43;2.97;;;;;;;6.17;82.82;102552.31;5092123;28;20031;-75
2021/03/28 01:13:59;;;;;;;23.17;3.93;;;;;;;6.18;83.06;102556.66;5094648;28;20030;-73
2021/03/28 01:16:34;;;;;;;17.33;3.67;;;;;;;6.12;82.93;102549.44;5092222;28;20153;-75
2021/03/28 01:19:37;;;;;;;18.77;3.13;;;;;;;6.11;83.38;102546.78;5092123;28;20032;-75
2021/03/28 01:22:10;;;;;;;18.80;3.13;;;;;;;6.14;83.24;102540.22;5091820;28;20020;-75
2021/03/28 01:24:50;;;;;;;16.27;3.23;;;;;;;6.12;83.24;102544.34;5073720;28;20119;-75
2021/03/28 01:27:27;;;;;;;16.53;3.37;;;;;;;6.16;83.18;102538.66;5094335;28;20016;-75
2021/03/28 01:29:58;;;;;;;16.47;3.10;;;;;;;6.12;83.41;102539.22;5112188;28;20035;-75
2021/03/28 01:32:30;;;;;;;18.50;2.90;;;;;;;6.24;82.92;102537.53;5111927;28;20019;-74
2021/03/28 01:35:05;;;;;;;14.70;2.70;;;;;;;6.17;82.84;102539.53;5112058;28;20488;-74
2021/03/28 01:37:47;;;;;;;24.73;3.70;;;;;;;6.24;82.77;102540.09;5113098;28;20540;-75
2021/03/28 01:40:41;;;;;;;12.23;4.03;;;;;;;6.27;83.33;102541.06;5112167;28;20028;-74
2021/03/28 01:43:44;;;;;;;15.20;3.27;;;;;;;6.21;83.23;102533.91;5112109;28;20028;-74
2021/03/28 01:46:17;;;;;;;19.57;3.40;;;;;;;6.21;83.63;102522.03;5111953;28;20077;-74
2021/03/28 01:49:19;;;;;;;20.67;3.20;;;;;;;6.21;83.60;102522.03;5111288;28;20032;-73
2021/03/28 01:52:32;;;;;;;13.60;3.03;;;;;;;6.23;83.38;102530.66;5111510;28;20110;-74
2021/03/28 01:55:08;;;;;;;17.63;3.07;;;;;;;6.27;83.50;102526.66;5067135;28;20034;-74
2021/03/28 01:58:04;;;;;;;17.13;3.55;;;;;;;6.29;82.93;102522.53;5090402;28;20023;-72
2021/03/28 02:01:07;;;;;;;16.90;3.53;;;;;;;6.28;83.24;102522.44;5090942;28;20039;-74
2021/03/28 02:03:42;;;;;;;17.03;3.50;;;;;;;6.23;83.36;102525.56;5091060;28;20463;-74
2021/03/28 02:06:35;;;;;;;16.03;3.27;;;;;;;6.26;82.74;102518.91;5091288;28;20047;-73
2021/03/28 02:09:11;;;;;;;17.27;3.77;;;;;;;6.27;83.28;102519.00;5105036;28;20031;-73
2021/03/28 02:11:58;;;;;;;19.75;3.20;;;;;;;6.20;83.53;102520.25;5111123;28;20023;-75
2021/03/28 02:15:09;;;;;;;15.65;3.22;;;;;;;6.20;83.56;102514.25;5111289;28;20043;-74
2021/03/28 02:17:46;;;;;;;22.87;3.53;;;;;;;6.12;83.83;102512.84;5046890;28;20036;-75
2021/03/28 02:20:37;;;;;;;17.57;3.37;;;;;;;6.13;83.51;102506.94;5091009;28;20024;-74
2021/03/28 02:23:35;;;;;;;15.93;3.47;;;;;;;6.07;84.05;102526.94;5100822;28;20030;-75
2021/03/28 02:26:35;;;;;;;17.23;3.60;;;;;;;6.09;83.86;102510.97;5111191;28;20522;-72
2021/03/28 02:29:12;;;;;;;16.23;4.20;;;;;;;6.00;84.21;102515.44;5089466;28;20059;-74
2021/03/28 02:31:55;;;;;;;18.70;3.50;;;;;;;5.97;84.54;102519.44;5110582;28;20553;-75
2021/03/28 02:34:29;;;;;;;16.47;3.50;;;;;;;5.98;84.33;102503.38;5110916;28;20027;-74
2021/03/28 02:37:23;;;;;;;16.07;3.57;;;;;;;5.99;84.47;102498.38;5092336;28;20016;-74
2021/03/28 02:39:56;;;;;;;14.20;3.00;;;;;;;6.03;83.76;102495.25;5072502;28;20035;-74
2021/03/28 02:42:32;;;;;;;16.23;3.30;;;;;;;5.94;83.92;102502.28;5072195;28;20028;-75
2021/03/28 02:45:08;;;;;;;15.03;3.00;;;;;;;5.95;84.27;102490.41;5107256;28;20073;-75
2021/03/28 02:48:04;;;;;;;16.73;3.47;;;;;;;5.94;84.48;102489.53;5110366;28;20313;-74
2021/03/28 02:50:48;;;;;;;13.87;3.27;;;;;;;5.91;84.70;102481.66;5110486;28;20035;-74
2021/03/28 02:53:23;;;;;;;16.50;3.70;;;;;;;5.91;84.49;102494.41;5110698;28;20265;-75
2021/03/28 02:56:00;;;;;;;20.17;4.30;;;;;;;5.87;84.58;102492.41;5110455;28;20035;-75
2021/03/28 02:59:02;;;;;;;14.83;3.27;;;;;;;5.99;84.91;102498.38;5109818;28;20061;-73
2021/03/28 03:01:58;;;;;;;14.63;3.40;;;;;;;6.05;84.97;102493.69;5109448;28;20027;-74
2021/03/28 03:04:50;;;;;;;12.80;2.93;;;;;;;6.08;84.97;102490.44;5110106;28;20088;-74
2021/03/28 03:07:36;;;;;;;10.60;3.30;;;;;;;6.17;84.50;102489.41;5099614;28;20028;-75
2021/03/28 03:10:27;;;;;;;21.70;4.00;;;;;;;6.31;84.63;102481.81;5100841;28;20119;-74
2021/03/28 03:13:24;;;;;;;19.07;4.50;;;;;;;6.26;84.94;102472.97;5110013;28;20055;-73
2021/03/28 03:16:00;;;;;;;14.13;3.27;;;;;;;6.26;85.00;102472.97;5102346;28;20028;-73
2021/03/28 03:19:01;;;;;;;10.25;2.83;;;;;;;6.24;84.49;102481.41;5072138;28;20047;-74
2021/03/28 03:22:00;;;;;;;18.43;3.60;;;;;;;6.21;85.02;102472.66;5071485;28;20019;-74
2021/03/28 03:24:56;;;;;;;14.90;3.00;;;;;;;6.21;85.04;102480.31;5075790;28;20047;-73
2021/03/28 03:27:40;;;;;;;20.83;3.93;;;;;;;6.17;84.43;102479.19;5096004;28;20530;-74
2021/03/28 03:30:30;;;;;;;19.90;4.83;;;;;;;6.12;84.76;102492.41;5107608;28;20037;-75
2021/03/28 03:33:26;;;;;;;18.50;3.80;;;;;;;6.06;84.76;102495.44;5079028;28;20024;-73
2021/03/28 03:36:16;;;;;;;13.83;3.30;;;;;;;6.05;84.56;102487.69;5091638;28;20028;-75
2021/03/28 03:39:14;;;;;;;13.90;3.40;;;;;;;5.95;85.11;102493.84;5110673;28;20019;-73
2021/03/28 03:41:58;;;;;;;10.73;2.90;;;;;;;5.88;85.73;102484.84;5109529;28;20493;-75
2021/03/28 03:44:47;;;;;;;20.80;3.67;;;;;;;5.93;85.54;102487.75;5088518;28;20062;-74
2021/03/28 03:47:32;;;;;;;19.60;3.80;;;;;;;5.88;85.42;102483.97;5082771;28;20035;-74
2021/03/28 03:50:06;;;;;;;15.40;3.53;;;;;;;5.97;85.54;102484.63;5109810;28;20085;-73
2021/03/28 03:52:34;;;;;;;20.70;3.90;;;;;;;5.96;84.98;102493.06;5109520;28;20381;-74
2021/03/28 03:55:15;;;;;;;15.47;3.43;;;;;;;5.97;85.35;102489.72;5109757;28;20024;-75
2021/03/28 03:57:48;;;;;;;17.10;4.20;;;;;;;5.95;85.13;102491.28;5109151;28;20431;-75
2021/03/28 04:00:24;;;;;;;15.80;3.53;;;;;;;5.93;84.74;102490.31;5088834;28;20028;-75
2021/03/28 04:02:49;;;;;;;18.00;4.30;;;;;;;5.98;84.78;102493.16;5071127;28;20146;-75
2021/03/28 04:05:33;;;;;;;12.07;2.90;;;;;;;6.00;84.71;102489.94;5089206;28;20107;-73
2021/03/28 04:08:17;;;;;;;13.53;3.30;;;;;;;5.99;85.08;102493.25;5101878;28;20044;-74
2021/03/28 04:10:52;;;;;;;18.70;3.37;;;;;;;5.99;84.37;102488.16;5091170;28;20028;-75
2021/03/28 04:13:48;;;;;;;19.73;3.60;;;;;;;6.05;84.72;102495.34;5094620;28;20515;-73
2021/03/28 04:16:38;;;;;;;12.97;3.53;;;;;;;6.09;84.43;102485.44;5113795;28;20019;-74
2021/03/28 04:19:09;;;;;;;20.37;3.70;;;;;;;6.11;83.98;102489.00;5095316;28;20443;-74
2021/03/28 04:21:49;;;;;;;20.40;3.63;;;;;;;6.10;83.78;102487.22;5113354;28;20019;-74
2021/03/28 04:24:27;;;;;;;18.47;3.67;;;;;;;6.15;83.70;102485.84;5094934;28;20385;-73
2021/03/28 04:27:31;;;;;;;14.00;4.00;;;;;;;6.10;84.08;102487.22;5095079;28;20023;-75
2021/03/28 04:29:57;;;;;;;18.57;3.87;;;;;;;6.24;83.47;102486.50;5095218;28;20020;-74
2021/03/28 04:32:50;;;;;;;16.90;2.85;;;;;;;6.21;83.96;102476.09;5094876;28;20512;-73
2021/03/28 04:35:24;;;;;;;11.77;2.60;;;;;;;6.30;83.42;102480.03;5074118;28;20447;-74
2021/03/28 04:38:46;;;;;;;18.67;3.17;;;;;;;6.31;83.47;102476.69;5093766;28;20028;-74
2021/03/28 04:41:33;;;;;;;14.70;2.60;;;;;;;6.32;83.21;102484.47;5006920;28;20112;-74
2021/03/28 04:44:34;;;;;;;15.77;3.15;;;;;;;6.46;82.62;102482.81;4996190;28;20038;-74
2021/03/28 04:47:48;;;;;;;12.07;2.80;;;;;;;6.33;82.91;102470.91;5090340;28;20055;-74
2021/03/28 04:50:45;;;;;;;13.73;2.83;;;;;;;6.53;82.65;102485.91;5092792;28;20028;-72
2021/03/28 04:53:25;;;;;;;14.17;2.60;;;;;;;6.55;82.41;102479.22;5091383;28;20020;-74
2021/03/28 04:56:06;;;;;;;12.27;2.53;;;;;;;6.62;82.22;102469.41;5092506;28;20492;-74
2021/03/28 04:58:54;;;;;;;9.77;2.80;;;;;;;6.64;81.81;102473.81;5073954;28;20036;-74
2021/03/28 05:01:35;;;;;;;12.90;2.30;;;;;;;6.61;82.14;102460.84;5078552;28;20019;-75
2021/03/28 05:04:18;;;;;;;13.47;2.83;;;;;;;6.84;80.79;102459.81;5093865;28;20039;-74
2021/03/28 05:06:49;;;;;;;9.70;2.37;;;;;;;6.76;81.22;102454.19;5092113;28;20139;-74
2021/03/28 05:09:39;;;;;;;16.03;2.47;;;;;;;6.71;81.13;102455.56;5093117;28;20111;-74
2021/03/28 05:12:37;;;;;;;11.53;2.77;;;;;;;6.76;80.86;102454.19;5092056;28;20031;-74
2021/03/28 05:15:26;;;;;;;13.40;3.25;;;;;;;6.74;81.31;102453.19;5090440;28;20050;-75
2021/03/28 05:18:28;;;;;;;18.20;2.57;;;;;;;6.74;81.04;102462.53;5091349;28;20516;-75
2021/03/28 05:21:33;;;;;;;10.50;2.63;;;;;;;6.70;81.60;102461.44;5091900;28;20032;-73
2021/03/28 05:24:07;;;;;;;10.87;2.90;;;;;;;6.74;81.84;102465.97;5091132;28;20024;-75
2021/03/28 05:26:35;;;;;;;15.90;2.83;;;;;;;6.91;81.03;102463.63;5095863;28;20093;-73
2021/03/28 05:29:21;;;;;;;10.70;2.83;;;;;;;6.90;81.37;102459.31;5111966;28;20047;-74
2021/03/28 05:32:14;;;;;;;17.83;3.10;;;;;;;6.88;81.09;102458.34;5111988;28;20362;-74
2021/03/28 05:35:01;;;;;;;19.10;2.47;;;;;;;6.93;81.31;102452.72;5099741;28;20552;-74
2021/03/28 05:38:13;;;;;;;15.43;3.00;;;;;;;7.03;80.48;102449.97;5108384;28;20594;-73
2021/03/28 05:41:00;;;;;;;14.00;2.83;;;;;;;6.95;80.95;102443.50;5099369;28;20028;-75
2021/03/28 05:44:06;;;;;;;13.77;2.95;;;;;;;7.04;80.24;102441.50;5080391;28;20118;-74
2021/03/28 05:46:38;;;;;;;13.67;2.57;;;;;;;7.06;80.92;102447.59;5104478;28;20024;-74
2021/03/28 05:49:36;;;;;;;16.87;3.13;;;;;;;7.08;80.55;102455.34;5098939;28;20493;-72
2021/03/28 05:52:14;;;;;;;15.73;3.40;;;;;;;7.04;80.45;102448.28;5099191;28;20031;-74
2021/03/28 05:55:09;;;;;;;12.87;2.67;;;;;;;7.11;80.62;102447.88;5101371;28;20413;-73
2021/03/28 05:58:08;;;;;;;11.17;3.10;;;;;;;7.16;80.46;102446.53;5082072;28;20062;-74
2021/03/28 06:00:44;;;;;;;10.07;3.00;;;;;;;7.16;80.61;102449.97;5100603;28;20020;-75
2021/03/28 06:03:19;;;;;;;18.55;3.78;;;;;;;7.24;80.26;102449.56;5076090;28;20397;-73
2021/03/28 06:06:35;;;;;;;15.27;2.67;;;;;;;7.22;80.13;102446.91;5103048;28;20027;-75
2021/03/28 06:09:22;;;;;;;11.13;3.17;;;;;;;7.20;80.38;102443.38;5112348;28;20024;-73
2021/03/28 06:12:11;;;;;;;15.10;2.95;;;;;;;7.27;80.19;102455.75;5111136;28;20106;-75
2021/03/28 06:15:09;;;;;;;11.27;3.20;;;;;;;7.33;79.89;102445.91;5111346;28;20023;-73
2021/03/28 06:17:48;;;;;;;8.98;2.75;;;;;;;7.40;79.53;102449.72;5093472;28;20430;-74
2021/03/28 06:20:13;;;;;;;7.53;2.90;;;;;;;7.45;78.98;102461.09;5107885;28;20020;-74
2021/03/28 06:22:47;;;;;;;11.97;2.60;;;;;;;7.62;78.89;102452.81;5100687;28;20028;-75
2021/03/28 06:25:27;;;;;;;12.10;2.57;;;;;;;7.96;77.09;102459.97;5082418;28;20023;-73
2021/03/28 06:28:16;;;;;;;9.53;2.53;;;;;;;8.15;76.46;102464.53;5111109;28;20031;-74
2021/03/28 06:31:19;;;;;;;10.53;2.73;;;;;;;8.80;74.68;102454.69;5079680;28;20050;-73
2021/03/28 06:34:02;;;;;;;9.13;2.67;;;;;;;9.58;71.40;102454.72;5090638;28;20032;-74
2021/03/28 06:36:56;;;;;;;9.13;2.50;;;;;;;10.09;69.82;102458.28;5094841;28;20036;-74
2021/03/28 06:40:14;;;;;;;12.33;3.67;;;;;;;10.65;68.07;102456.00;5091146;28;20469;-74
2021/03/28 06:43:26;;;;;;;13.63;2.90;;;;;;;11.08;66.83;102450.38;5104387;28;20027;-75
2021/03/28 06:46:29;;;;;;;10.80;2.40;;;;;;;11.56;63.74;102449.19;5082414;28;20049;-74
2021/03/28 06:49:19;;;;;;;12.02;2.80;;;;;;;11.44;62.64;102446.06;5111237;28;20035;-74
2021/03/28 06:51:59;;;;;;;13.68;3.67;;;;;;;11.33;64.25;102447.22;5110795;28;20024;-74
2021/03/28 06:54:43;;;;;;;12.48;3.35;;;;;;;11.34;64.84;102464.44;5091203;28;20058;-75
2021/03/28 06:57:26;;;;;;;11.55;3.13;;;;;;;12.06;63.06;102456.63;5110933;28;20058;-74
2021/03/28 07:00:19;;;;;;;9.18;2.67;;;;;;;12.72;61.61;102467.13;5092143;28;20448;-74
2021/03/28 07:03:12;;;;;;;11.50;3.28;;;;;;;12.60;61.25;102459.75;5090450;28;20020;-75
2021/03/28 07:06:02;;;;;;;11.48;2.97;;;;;;;12.85;60.30;102464.22;5072400;28;20453;-74
2021/03/28 07:09:01;;;;;;;11.77;2.85;;;;;;;12.53;60.72;102469.75;5104058;28;20031;-74
2021/03/28 07:11:50;;;;;;;11.57;2.83;;;;;;;12.31;62.34;102473.97;5110574;28;20019;-74
2021/03/28 07:14:46;;;;;;;10.20;3.35;;;;;;;12.07;61.74;102478.09;5110959;28;20496;-74
2021/03/28 07:17:30;;;;;;;11.85;3.10;;;;;;;11.47;63.72;102464.22;5110855;28;20027;-74
2021/03/28 07:20:23;;;;;;;11.40;2.83;;;;;;;11.51;64.99;102467.00;5099601;28;20047;-75
2021/03/28 07:22:51;;;;;;;11.48;3.13;;;;;;;11.41;64.25;102469.06;5100176;28;20027;-75
2021/03/28 07:25:46;;;;;;;9.38;2.80;;;;;;;10.75;66.03;102467.63;5096825;28;20077;-75
2021/03/28 07:28:39;;;;;;;14.63;3.72;;;;;;;10.32;67.87;102462.91;5081858;28;20023;-74
2021/03/28 07:31:20;;;;;;;10.50;2.95;;;;;;;10.40;68.37;102476.13;5110389;28;20076;-74
2021/03/28 07:34:29;;;;;;;14.73;3.57;;;;;;;10.56;68.51;102470.97;5110752;28;20564;-75
2021/03/28 07:37:19;;;;;;;13.53;3.23;;;;;;;10.83;67.87;102463.75;5092522;28;20027;-74
2021/03/28 07:40:06;;;;;;;16.27;3.05;;;;;;;11.50;67.35;102464.34;5092612;28;20030;-74
2021/03/28 07:43:09;;;;;;;14.45;3.63;;;;;;;13.14;63.01;102449.88;5088671;28;20028;-75
2021/03/28 07:45:37;;;;;;;12.43;3.42;;;;;;;12.62;60.34;102452.06;5101502;28;20210;-74
2021/03/28 07:48:40;;;;;;;10.77;2.58;;;;;;;12.41;62.13;102460.69;5091294;28;20027;-72
2021/03/28 07:51:26;;;;;;;12.18;3.10;;;;;;;12.09;62.97;102461.00;5110198;28;20122;-73
2021/03/28 07:54:22;;;;;;;10.35;3.42;;;;;;;11.94;64.20;102456.06;5095769;28;20085;-76
2021/03/28 07:57:19;;;;;;;15.75;4.03;;;;;;;11.93;63.57;102449.16;5094816;28;20028;-75
2021/03/28 07:59:45;;;;;;;;;;;;;;;11.82;63.87;102450.38;5111677;28;20024;-75
2021/03/28 08:02:25;;;;;;;14.02;3.20;;;;;;;11.82;63.71;102448.69;5109727;28;19919;-73
2021/03/28 08:05:13;;;;;;;13.63;3.63;;;;;;;11.66;62.98;102456.50;5109282;28;20026;-72
2021/03/28 08:07:53;;;;;;;12.40;3.45;;;;;;;11.50;64.42;102462.66;5108953;28;20023;-74
2021/03/28 08:10:46;;;;;;;10.38;2.88;;;;;;;11.63;64.70;102447.75;5109026;28;20448;-73
2021/03/28 08:13:46;;;;;;;10.18;2.78;;;;;;;11.45;63.79;102452.97;5088550;28;20051;-73
2021/03/28 08:16:39;;;;;;;11.13;3.20;;;;;;;11.84;64.17;102452.22;5093260;28;20065;-73
2021/03/28 08:19:23;;;;;;;17.27;3.30;;;;;;;11.93;62.25;102444.00;5089815;28;20026;-74
2021/03/28 08:22:14;;;;;;;10.18;2.80;;;;;;;12.36;60.98;102438.13;5070317;28;20481;-74
2021/03/28 08:25:05;;;;;;;11.23;2.80;;;;;;;12.12;61.23;102430.22;5090231;28;20031;-73
2021/03/28 08:27:58;;;;;;;10.80;2.95;;;;;;;12.26;61.35;102444.56;5092711;28;20140;-73
2021/03/28 08:30:45;;;;;;;9.55;2.35;;;;;;;12.36;60.41;102436.44;5089249;28;20031;-74
2021/03/28 08:34:05;;;;;;;9.93;2.55;;;;;;;12.27;60.50;102436.03;5076549;28;20035;-72
2021/03/28 08:36:57;;;;;;;14.27;2.88;;;;;;;13.23;61.62;102434.78;5008405;28;20037;-75
2021/03/28 08:39:50;;;;;;;13.93;3.08;;;;;;;13.71;56.68;102437.44;5025664;28;20025;-74
2021/03/28 08:42:36;;;;;;;10.60;2.58;;;;;;;14.27;56.28;102428.19;5086404;28;20062;-73
2021/03/28 08:45:30;;;;;;;9.90;3.20;;;;;;;14.90;55.53;102428.56;5074200;28;20393;-74
2021/03/28 08:48:23;;;;;;;13.38;2.83;;;;;;;15.49;53.90;102432.97;5088987;28;20328;-74
2021/03/28 08:51:14;;;;;;;9.57;2.55;;;;;;;14.61;55.27;102443.16;5092741;28;20038;-74
2021/03/28 08:54:18;;;;;;;12.57;2.50;;;;;;;15.32;53.60;102443.69;5090589;28;20035;-75
2021/03/28 08:57:13;;;;;;;10.60;2.83;;;;;;;15.07;53.26;102455.00;5093648;28;20023;-74
2021/03/28 08:59:53;;;;;;;13.20;2.58;;;;;;;14.93;51.10;102445.06;5071470;28;20035;-75
2021/03/28 09:02:35;;;;;;;11.52;2.80;;;;;;;15.99;53.86;102446.50;5091948;28;20051;-74
2021/03/28 09:05:15;;;;;;;13.23;3.03;;;;;;;16.64;48.85;102447.31;5091936;28;20028;-74
2021/03/28 09:07:49;;;;;;;10.35;2.90;;;;;;;16.68;49.44;102459.56;5092960;28;20063;-74
2021/03/28 09:10:42;;;;;;;10.70;2.60;;;;;;;16.74;48.05;102453.63;5094042;28;20042;-74
2021/03/28 09:13:23;;;;;;;10.25;2.55;;;;;;;17.02;48.95;102457.75;5111896;28;20019;-74
2021/03/28 09:15:56;;;;;;;10.23;2.50;;;;;;;15.94;49.26;102461.06;5111667;28;20046;-71
2021/03/28 09:18:25;;;;;;;12.75;2.50;;;;;;;15.60;50.69;102458.31;5093295;28;20015;-74
2021/03/28 09:20:57;;;;;;;14.15;3.05;;;;;;;15.72;51.50;102484.59;5092850;28;20048;-72
2021/03/28 09:23:44;;;;;;;9.82;2.20;;;;;;;15.63;50.81;102464.50;5093410;28;20114;-74
2021/03/28 09:26:27;;;;;;;13.77;2.45;;;;;;;15.49;52.33;102466.63;5111179;28;20084;-72
2021/03/28 09:29:15;;;;;;;10.30;2.53;;;;;;;15.43;50.25;102474.22;5111206;28;20031;-72
2021/03/28 09:31:54;;;;;;;12.73;2.38;;;;;;;14.51;52.29;102470.44;5095185;28;20154;-74
2021/03/28 09:34:29;;;;;;;10.55;2.38;;;;;;;14.56;53.26;102468.88;5073108;28;20477;-74
2021/03/28 09:37:16;;;;;;;16.40;2.77;;;;;;;14.35;52.79;102467.25;5108372;28;20038;-73
2021/03/28 09:40:05;;;;;;;8.50;2.92;;;;;;;14.10;53.27;102478.44;5111932;28;20031;-74
2021/03/28 09:43:23;;;;;;;11.82;2.50;;;;;;;13.74;54.35;102483.16;5111579;28;20426;-74
2021/03/28 09:46:07;;;;;;;9.95;2.40;;;;;;;13.22;54.93;102488.91;5009082;28;20619;-72
2021/03/28 09:48:50;;;;;;;9.75;2.20;;;;;;;13.14;56.56;102483.44;5084625;28;20031;-72
2021/03/28 09:51:34;;;;;;;11.55;2.00;;;;;;;12.99;55.60;102486.25;5110802;28;20054;-74
2021/03/28 09:54:25;;;;;;;10.00;2.00;;;;;;;12.68;56.16;102480.69;5109756;28;20422;-74
2021/03/28 09:57:04;;;;;;;13.98;1.83;;;;;;;12.92;57.16;102484.25;5091489;28;20026;-73
2021/03/28 09:59:51;;;;;;;13.48;2.25;;;;;;;12.73;56.67;102476.63;5092808;28;20024;-71
2021/03/28 10:02:25;;;;;;;12.68;2.65;;;;;;;12.38;57.54;102488.91;5099023;28;20590;-74
2021/03/28 10:05:20;;;;;;;13.40;2.13;;;;;;;12.38;58.59;102485.47;5073745;28;20030;-72
2021/03/28 10:08:11;;;;;;;10.07;2.13;;;;;;;12.37;57.54;102494.88;5054464;28;20036;-75
2021/03/28 10:11:05;;;;;;;12.18;1.98;;;;;;;12.26;58.60;102493.53;5071874;28;20081;-74
2021/03/28 10:13:40;;;;;;;12.07;2.45;;;;;;;12.26;59.40;102501.25;5090955;28;20012;-71
2021/03/28 10:16:12;;;;;;;12.13;2.25;;;;;;;11.95;58.19;102488.72;5098131;28;20011;-74
2021/03/28 10:18:46;;;;;;;13.27;2.42;;;;;;;12.02;58.89;102495.91;5110456;28;20024;-73
2021/03/28 10:21:35;;;;;;;10.43;2.22;;;;;;;11.60;58.71;102488.81;5097183;28;20517;-71
2021/03/28 10:24:03;;;;;;;13.38;2.35;;;;;;;11.68;60.36;102498.63;5072450;28;20401;-74
2021/03/28 10:26:44;;;;;;;8.95;2.03;;;;;;;11.74;60.24;102509.22;5075593;28;20100;-74
2021/03/28 10:29:41;;;;;;;12.93;2.25;;;;;;;11.84;60.56;102501.13;5083447;28;20024;-75
2021/03/28 10:32:52;;;;;;;11.73;2.23;;;;;;;12.10;61.84;102504.00;5072323;28;20090;-74
2021/03/28 10:35:23;;;;;;;8.40;1.70;;;;;;;11.97;60.32;102506.81;5086106;28;20308;-76
2021/03/28 10:38:03;;;;;;;11.20;2.42;;;;;;;11.87;61.17;102518.41;5109846;28;20020;-73
2021/03/28 10:40:38;;;;;;;12.90;2.10;;;;;;;12.11;60.86;102511.78;5092384;28;20078;-74
2021/03/28 10:43:28;;;;;;;10.73;2.30;;;;;;;12.02;60.89;102513.06;5090110;28;20026;-74
2021/03/28 10:46:12;;;;;;;11.50;1.88;;;;;;;11.91;61.51;102512.59;5089923;28;20384;-76
2021/03/28 10:49:28;;;;;;;15.63;2.30;;;;;;;11.79;59.98;102518.06;5090262;28;20553;-75
2021/03/28 10:52:12;;;;;;;13.93;2.25;;;;;;;11.55;60.25;102516.91;5007517;28;20398;-74
2021/03/28 10:54:54;;;;;;;15.30;2.65;;;;;;;11.70;61.60;102504.72;5007801;28;20029;-76
2021/03/28 10:57:54;;;;;;;11.13;2.50;;;;;;;11.81;61.75;102511.31;5066388;28;20027;-75
2021/03/28 11:00:57;;;;;;;10.90;2.10;;;;;;;11.77;61.48;102506.78;5071718;28;20063;-75
2021/03/28 11:04:04;;;;;;;13.15;2.28;;;;;;;11.71;60.22;102496.22;5071982;28;20027;-75
2021/03/28 11:06:42;;;;;;;9.48;2.08;;;;;;;11.79;59.92;102500.06;5032252;28;20033;-73
2021/03/28 11:09:20;;;;;;;12.95;2.38;;;;;;;11.89;60.13;102496.19;5110020;28;20027;-75
2021/03/28 11:12:00;;;;;;;12.10;2.30;;;;;;;12.00;60.23;102514.69;5109745;28;20052;-75
2021/03/28 11:14:47;;;;;;;13.65;2.05;;;;;;;12.02;60.12;102510.47;5109557;28;20027;-75
2021/03/28 11:17:49;;;;;;;12.43;2.75;;;;;;;12.01;60.43;102503.56;5109905;28;20107;-75
2021/03/28 11:20:23;;;;;;;13.07;2.38;;;;;;;12.03;60.83;102527.69;5109846;28;20054;-73
2021/03/28 11:23:27;;;;;;;10.23;2.13;;;;;;;12.02;59.75;102515.63;5108745;28;20023;-75
2021/03/28 11:25:56;;;;;;;12.75;2.75;;;;;;;12.10;60.90;102509.16;5091364;28;20058;-75
2021/03/28 11:29:06;;;;;;;20.67;2.97;;;;;;;12.38;60.80;102511.22;5109582;28;20031;-74
2021/03/28 11:31:56;;;;;;;9.50;2.30;;;;;;;12.57;59.43;102508.59;5040923;28;20085;-73
2021/03/28 11:34:26;;;;;;;14.43;2.10;;;;;;;12.62;59.28;102507.09;5089321;28;20051;-72
2021/03/28 11:36:57;;;;;;;13.98;2.55;;;;;;;12.81;59.10;102511.31;5089412;28;20110;-75
2021/03/28 11:39:26;;;;;;;15.65;2.38;;;;;;;12.86;59.13;102514.97;5090028;28;20090;-75
2021/03/28 11:42:10;;;;;;;14.48;2.42;;;;;;;13.06;58.42;102519.25;5088903;28;20477;-73
2021/03/28 11:44:59;;;;;;;16.25;2.67;;;;;;;12.89;59.35;102516.78;5070844;28;20028;-73
2021/03/28 11:47:54;;;;;;;12.15;2.50;;;;;;;12.73;59.82;102523.03;5071033;28;20500;-75
2021/03/28 11:50:28;;;;;;;12.00;2.78;;;;;;;12.89;59.03;102507.34;5100010;28;20420;-74
2021/03/28 11:53:19;;;;;;;10.88;2.22;;;;;;;12.73;60.35;102507.56;5110461;28;20443;-74
2021/03/28 11:55:48;;;;;;;13.60;2.53;;;;;;;12.81;60.02;102508.75;5109244;28;20027;-75
2021/03/28 11:58:17;;;;;;;12.88;2.10;;;;;;;12.83;58.57;102490.75;5108932;28;20016;-75
2021/03/28 12:00:50;;;;;;;10.73;1.77;;;;;;;12.98;60.44;102501.69;5109518;28;20451;-72
2021/03/28 12:03:19;;;;;;;11.07;2.40;;;;;;;13.03;58.61;102495.03;5090737;28;20023;-73
2021/03/28 12:06:10;;;;;;;13.18;2.30;;;;;;;12.92;59.35;102499.75;5109308;28;20028;-73
2021/03/28 12:08:45;;;;;;;18.90;2.55;;;;;;;12.72;59.91;102503.22;5091470;28;20022;-75
2021/03/28 12:11:31;;;;;;;11.57;2.38;;;;;;;12.65;60.01;102501.19;5102473;28;20107;-74
2021/03/28 12:14:14;;;;;;;12.02;2.45;;;;;;;12.48;59.60;102486.72;5102108;28;20652;-74
2021/03/28 12:17:08;;;;;;;16.20;2.70;;;;;;;12.71;60.15;102486.00;5072244;28;20393;-75
2021/03/28 12:19:46;;;;;;;9.70;2.38;;;;;;;12.87;59.25;102492.63;5102264;28;20099;-73
2021/03/28 12:22:19;;;;;;;10.90;2.00;;;;;;;13.16;59.56;102506.72;5102275;28;20071;-74
2021/03/28 12:24:46;;;;;;;16.33;3.00;;;;;;;12.98;58.91;102517.16;5071925;28;20020;-74
2021/03/28 12:27:29;;;;;;;11.20;2.50;;;;;;;12.65;59.95;102529.53;5090347;28;20393;-75
2021/03/28 12:29:55;;;;;;;13.02;2.65;;;;;;;12.44;61.12;102532.09;5089870;28;20019;-75
2021/03/28 12:32:39;;;;;;;10.80;2.53;;;;;;;12.36;61.24;102534.38;5091666;28;20031;-75
2021/03/28 12:35:19;;;;;;;11.38;2.20;;;;;;;12.37;62.03;102536.13;5114422;28;20390;-74
2021/03/28 12:37:47;;;;;;;17.95;3.17;;;;;;;12.31;62.73;102551.28;5114566;28;20259;-73
2021/03/28 12:40:36;;;;;;;10.88;2.85;;;;;;;12.23;61.60;102544.94;5079711;28;20027;-74
2021/03/28 12:43:04;;;;;;;10.05;2.45;;;;;;;12.10;61.37;102550.38;5094026;28;20028;-75
2021/03/28 12:45:33;;;;;;;14.52;2.53;;;;;;;11.98;61.72;102549.78;5093677;28;20115;-74
2021/03/28 12:48:00;;;;;;;13.45;2.30;;;;;;;11.96;63.07;102551.41;5075554;28;20031;-74